sensor_id;sensor_type;location;lat;lon;timestamp;P1;durP1;ratioP1;P2;durP2;ratioP2
59294;SDS011;45067;44.654;20.200;2023-03-02T00:02:19;24.00;;;12.05;;
59294;SDS011;45067;44.654;20.200;2023-03-02T00:04:50;23.52;;;14.35;;
59294;SDS011;45067;44.654;20.200;2023-03-02T00:07:21;20.42;;;12.48;;
59294;SDS011;45067;44.654;20.200;2023-03-02T00:09:48;21.83;;;12.73;;
59294;SDS011;45067;44.654;20.200;2023-03-02T00:12:15;18.45;;;11.80;;
59294;SDS011;45067;44.654;20.200;2023-03-02T00:14:42;19.75;;;11.57;;
59294;SDS011;45067;44.654;20.200;2023-03-02T00:17:08;18.23;;;10.82;;
59294;SDS011;45067;44.654;20.200;2023-03-02T00:19:34;18.98;;;11.50;;
59294;SDS011;45067;44.654;20.200;2023-03-02T00:22:00;18.10;;;11.02;;
59294;SDS011;45067;44.654;20.200;2023-03-02T00:24:26;18.35;;;10.45;;
59294;SDS011;45067;44.654;20.200;2023-03-02T00:26:52;16.05;;;10.10;;
59294;SDS011;45067;44.654;20.200;2023-03-02T00:29:18;17.85;;;10.23;;
59294;SDS011;45067;44.654;20.200;2023-03-02T00:31:44;16.30;;;10.73;;
59294;SDS011;45067;44.654;20.200;2023-03-02T00:34:10;15.52;;;9.70;;
59294;SDS011;45067;44.654;20.200;2023-03-02T00:36:36;18.15;;;10.07;;
59294;SDS011;45067;44.654;20.200;2023-03-02T00:39:02;14.63;;;9.65;;
59294;SDS011;45067;44.654;20.200;2023-03-02T00:41:29;14.68;;;9.23;;
59294;SDS011;45067;44.654;20.200;2023-03-02T00:43:55;15.02;;;9.38;;
59294;SDS011;45067;44.654;20.200;2023-03-02T00:46:22;15.57;;;9.23;;
59294;SDS011;45067;44.654;20.200;2023-03-02T00:48:49;20.35;;;11.50;;
59294;SDS011;45067;44.654;20.200;2023-03-02T00:51:15;21.70;;;12.70;;
59294;SDS011;45067;44.654;20.200;2023-03-02T00:53:41;18.27;;;10.70;;
59294;SDS011;45067;44.654;20.200;2023-03-02T00:56:08;22.25;;;10.73;;
59294;SDS011;45067;44.654;20.200;2023-03-02T00:58:34;19.10;;;10.82;;
59294;SDS011;45067;44.654;20.200;2023-03-02T01:01:08;17.30;;;10.75;;
59294;SDS011;45067;44.654;20.200;2023-03-02T01:03:35;15.35;;;10.18;;
59294;SDS011;45067;44.654;20.200;2023-03-02T01:06:01;19.75;;;10.02;;
59294;SDS011;45067;44.654;20.200;2023-03-02T01:08:28;17.25;;;9.63;;
59294;SDS011;45067;44.654;20.200;2023-03-02T01:10:54;15.60;;;9.98;;
59294;SDS011;45067;44.654;20.200;2023-03-02T01:13:21;14.00;;;8.40;;
59294;SDS011;45067;44.654;20.200;2023-03-02T01:15:47;12.75;;;9.05;;
59294;SDS011;45067;44.654;20.200;2023-03-02T01:18:13;13.52;;;8.40;;
59294;SDS011;45067;44.654;20.200;2023-03-02T01:20:39;12.85;;;8.13;;
59294;SDS011;45067;44.654;20.200;2023-03-02T01:23:05;13.10;;;8.30;;
59294;SDS011;45067;44.654;20.200;2023-03-02T01:25:31;14.05;;;8.52;;
59294;SDS011;45067;44.654;20.200;2023-03-02T01:27:57;18.17;;;10.65;;
59294;SDS011;45067;44.654;20.200;2023-03-02T01:30:23;17.83;;;9.77;;
59294;SDS011;45067;44.654;20.200;2023-03-02T01:32:49;14.63;;;9.15;;
59294;SDS011;45067;44.654;20.200;2023-03-02T01:35:15;15.65;;;9.68;;
59294;SDS011;45067;44.654;20.200;2023-03-02T01:37:41;14.60;;;9.27;;
59294;SDS011;45067;44.654;20.200;2023-03-02T01:40:08;14.68;;;9.45;;
59294;SDS011;45067;44.654;20.200;2023-03-02T01:42:39;16.73;;;8.95;;
59294;SDS011;45067;44.654;20.200;2023-03-02T01:45:38;14.93;;;8.35;;
59294;SDS011;45067;44.654;20.200;2023-03-02T01:47:51;13.82;;;8.95;;
59294;SDS011;45067;44.654;20.200;2023-03-02T01:52:43;13.55;;;8.32;;
59294;SDS011;45067;44.654;20.200;2023-03-02T01:55:10;12.15;;;7.88;;
59294;SDS011;45067;44.654;20.200;2023-03-02T01:57:39;12.45;;;7.90;;
59294;SDS011;45067;44.654;20.200;2023-03-02T02:00:11;12.15;;;8.23;;
59294;SDS011;45067;44.654;20.200;2023-03-02T02:02:39;15.93;;;8.95;;
59294;SDS011;45067;44.654;20.200;2023-03-02T02:05:09;14.15;;;9.10;;
59294;SDS011;45067;44.654;20.200;2023-03-02T02:07:37;12.77;;;8.10;;
59294;SDS011;45067;44.654;20.200;2023-03-02T02:10:04;13.15;;;7.68;;
59294;SDS011;45067;44.654;20.200;2023-03-02T02:12:30;15.48;;;8.88;;
59294;SDS011;45067;44.654;20.200;2023-03-02T02:14:56;13.43;;;8.02;;
59294;SDS011;45067;44.654;20.200;2023-03-02T02:17:25;12.02;;;7.75;;
59294;SDS011;45067;44.654;20.200;2023-03-02T02:20:04;18.48;;;11.43;;
59294;SDS011;45067;44.654;20.200;2023-03-02T02:22:49;14.25;;;8.43;;
59294;SDS011;45067;44.654;20.200;2023-03-02T02:27:46;13.10;;;8.35;;
59294;SDS011;45067;44.654;20.200;2023-03-02T02:30:12;13.00;;;8.00;;
59294;SDS011;45067;44.654;20.200;2023-03-02T02:32:40;13.32;;;7.97;;
59294;SDS011;45067;44.654;20.200;2023-03-02T02:35:09;13.13;;;7.47;;
59294;SDS011;45067;44.654;20.200;2023-03-02T02:40:03;12.73;;;8.40;;
59294;SDS011;45067;44.654;20.200;2023-03-02T02:42:37;14.25;;;8.68;;
59294;SDS011;45067;44.654;20.200;2023-03-02T02:45:05;14.07;;;8.70;;
59294;SDS011;45067;44.654;20.200;2023-03-02T02:47:32;35.13;;;20.80;;
59294;SDS011;45067;44.654;20.200;2023-03-02T02:49:58;23.88;;;14.60;;
59294;SDS011;45067;44.654;20.200;2023-03-02T02:52:25;16.90;;;10.25;;
59294;SDS011;45067;44.654;20.200;2023-03-02T02:54:53;17.15;;;10.38;;
59294;SDS011;45067;44.654;20.200;2023-03-02T02:57:19;16.42;;;10.57;;
59294;SDS011;45067;44.654;20.200;2023-03-02T02:59:49;16.27;;;10.82;;
59294;SDS011;45067;44.654;20.200;2023-03-02T03:02:20;11.32;;;7.88;;
59294;SDS011;45067;44.654;20.200;2023-03-02T03:07:18;11.65;;;7.40;;
59294;SDS011;45067;44.654;20.200;2023-03-02T03:09:46;12.02;;;6.47;;
59294;SDS011;45067;44.654;20.200;2023-03-02T03:12:15;10.55;;;6.45;;
59294;SDS011;45067;44.654;20.200;2023-03-02T03:14:42;10.35;;;7.05;;
59294;SDS011;45067;44.654;20.200;2023-03-02T03:17:08;10.07;;;6.38;;
59294;SDS011;45067;44.654;20.200;2023-03-02T03:19:38;9.63;;;6.47;;
59294;SDS011;45067;44.654;20.200;2023-03-02T03:22:06;9.35;;;6.07;;
59294;SDS011;45067;44.654;20.200;2023-03-02T03:24:32;11.88;;;6.40;;
59294;SDS011;45067;44.654;20.200;2023-03-02T03:26:59;11.40;;;7.35;;
59294;SDS011;45067;44.654;20.200;2023-03-02T03:29:27;10.45;;;6.00;;
59294;SDS011;45067;44.654;20.200;2023-03-02T03:31:54;9.30;;;6.00;;
59294;SDS011;45067;44.654;20.200;2023-03-02T03:34:20;9.43;;;6.25;;
59294;SDS011;45067;44.654;20.200;2023-03-02T03:36:46;9.85;;;6.53;;
59294;SDS011;45067;44.654;20.200;2023-03-02T03:39:14;11.55;;;6.80;;
59294;SDS011;45067;44.654;20.200;2023-03-02T03:41:41;9.10;;;6.03;;
59294;SDS011;45067;44.654;20.200;2023-03-02T03:44:07;10.20;;;6.68;;
59294;SDS011;45067;44.654;20.200;2023-03-02T03:46:33;11.98;;;6.65;;
59294;SDS011;45067;44.654;20.200;2023-03-02T03:48:59;8.88;;;6.28;;
59294;SDS011;45067;44.654;20.200;2023-03-02T03:51:25;11.07;;;6.65;;
59294;SDS011;45067;44.654;20.200;2023-03-02T03:53:51;11.40;;;7.05;;
59294;SDS011;45067;44.654;20.200;2023-03-02T03:56:34;10.02;;;6.00;;
59294;SDS011;45067;44.654;20.200;2023-03-02T03:59:01;11.23;;;6.35;;
59294;SDS011;45067;44.654;20.200;2023-03-02T04:04:03;9.40;;;6.47;;
59294;SDS011;45067;44.654;20.200;2023-03-02T04:06:29;12.57;;;6.68;;
59294;SDS011;45067;44.654;20.200;2023-03-02T04:08:55;11.95;;;7.05;;
59294;SDS011;45067;44.654;20.200;2023-03-02T04:11:21;10.85;;;6.63;;
59294;SDS011;45067;44.654;20.200;2023-03-02T04:13:47;10.63;;;6.70;;
59294;SDS011;45067;44.654;20.200;2023-03-02T04:16:14;9.82;;;6.07;;
59294;SDS011;45067;44.654;20.200;2023-03-02T04:18:40;10.60;;;7.00;;
59294;SDS011;45067;44.654;20.200;2023-03-02T04:21:07;11.25;;;6.68;;
59294;SDS011;45067;44.654;20.200;2023-03-02T04:23:33;10.80;;;6.38;;
59294;SDS011;45067;44.654;20.200;2023-03-02T04:25:59;11.55;;;7.03;;
59294;SDS011;45067;44.654;20.200;2023-03-02T04:28:29;16.93;;;9.93;;
59294;SDS011;45067;44.654;20.200;2023-03-02T04:30:55;11.10;;;7.03;;
59294;SDS011;45067;44.654;20.200;2023-03-02T04:33:21;13.45;;;8.30;;
59294;SDS011;45067;44.654;20.200;2023-03-02T04:35:47;11.32;;;7.30;;
59294;SDS011;45067;44.654;20.200;2023-03-02T04:38:13;12.32;;;7.72;;
59294;SDS011;45067;44.654;20.200;2023-03-02T04:40:39;11.52;;;7.60;;
59294;SDS011;45067;44.654;20.200;2023-03-02T04:43:05;12.48;;;7.47;;
59294;SDS011;45067;44.654;20.200;2023-03-02T04:45:31;10.40;;;6.65;;
59294;SDS011;45067;44.654;20.200;2023-03-02T04:47:57;10.90;;;6.53;;
59294;SDS011;45067;44.654;20.200;2023-03-02T04:50:23;11.45;;;7.43;;
59294;SDS011;45067;44.654;20.200;2023-03-02T04:52:49;10.55;;;6.82;;
59294;SDS011;45067;44.654;20.200;2023-03-02T04:55:17;11.57;;;7.65;;
59294;SDS011;45067;44.654;20.200;2023-03-02T04:57:43;15.38;;;8.73;;
59294;SDS011;45067;44.654;20.200;2023-03-02T05:00:10;13.25;;;8.15;;
59294;SDS011;45067;44.654;20.200;2023-03-02T05:02:36;11.63;;;7.20;;
59294;SDS011;45067;44.654;20.200;2023-03-02T05:05:03;10.50;;;6.60;;
59294;SDS011;45067;44.654;20.200;2023-03-02T05:07:29;13.30;;;6.82;;
59294;SDS011;45067;44.654;20.200;2023-03-02T05:09:55;12.52;;;7.38;;
59294;SDS011;45067;44.654;20.200;2023-03-02T05:12:21;12.23;;;8.10;;
59294;SDS011;45067;44.654;20.200;2023-03-02T05:14:47;12.77;;;7.40;;
59294;SDS011;45067;44.654;20.200;2023-03-02T05:17:13;15.90;;;8.35;;
59294;SDS011;45067;44.654;20.200;2023-03-02T05:19:39;11.90;;;7.60;;
59294;SDS011;45067;44.654;20.200;2023-03-02T05:22:05;11.38;;;7.40;;
59294;SDS011;45067;44.654;20.200;2023-03-02T05:24:31;13.40;;;8.80;;
59294;SDS011;45067;44.654;20.200;2023-03-02T05:26:57;12.75;;;8.00;;
59294;SDS011;45067;44.654;20.200;2023-03-02T05:29:23;15.15;;;9.18;;
59294;SDS011;45067;44.654;20.200;2023-03-02T05:31:49;15.95;;;9.68;;
59294;SDS011;45067;44.654;20.200;2023-03-02T05:34:16;13.68;;;8.25;;
59294;SDS011;45067;44.654;20.200;2023-03-02T05:36:42;13.38;;;9.05;;
59294;SDS011;45067;44.654;20.200;2023-03-02T05:39:09;12.57;;;8.27;;
59294;SDS011;45067;44.654;20.200;2023-03-02T05:41:35;12.10;;;8.15;;
59294;SDS011;45067;44.654;20.200;2023-03-02T05:44:02;11.98;;;7.63;;
59294;SDS011;45067;44.654;20.200;2023-03-02T05:46:28;13.75;;;7.57;;
59294;SDS011;45067;44.654;20.200;2023-03-02T05:48:54;12.70;;;7.80;;
59294;SDS011;45067;44.654;20.200;2023-03-02T05:51:20;13.35;;;7.90;;
59294;SDS011;45067;44.654;20.200;2023-03-02T05:53:46;10.80;;;7.25;;
59294;SDS011;45067;44.654;20.200;2023-03-02T05:56:12;11.63;;;7.40;;
59294;SDS011;45067;44.654;20.200;2023-03-02T05:58:38;14.10;;;7.38;;
59294;SDS011;45067;44.654;20.200;2023-03-02T06:01:08;12.23;;;7.30;;
59294;SDS011;45067;44.654;20.200;2023-03-02T06:03:35;10.65;;;6.40;;
59294;SDS011;45067;44.654;20.200;2023-03-02T06:06:01;12.48;;;7.85;;
59294;SDS011;45067;44.654;20.200;2023-03-02T06:08:27;13.10;;;7.57;;
59294;SDS011;45067;44.654;20.200;2023-03-02T06:10:56;9.52;;;6.47;;
59294;SDS011;45067;44.654;20.200;2023-03-02T06:13:22;13.25;;;8.90;;
59294;SDS011;45067;44.654;20.200;2023-03-02T06:15:48;12.73;;;8.00;;
59294;SDS011;45067;44.654;20.200;2023-03-02T06:18:14;12.98;;;8.63;;
59294;SDS011;45067;44.654;20.200;2023-03-02T06:20:40;11.85;;;6.90;;
59294;SDS011;45067;44.654;20.200;2023-03-02T06:23:07;10.35;;;6.40;;
59294;SDS011;45067;44.654;20.200;2023-03-02T06:25:33;13.50;;;9.07;;
59294;SDS011;45067;44.654;20.200;2023-03-02T06:28:00;14.63;;;8.85;;
59294;SDS011;45067;44.654;20.200;2023-03-02T06:30:26;17.98;;;12.38;;
59294;SDS011;45067;44.654;20.200;2023-03-02T06:32:53;23.20;;;13.85;;
59294;SDS011;45067;44.654;20.200;2023-03-02T06:35:19;22.55;;;13.95;;
59294;SDS011;45067;44.654;20.200;2023-03-02T06:37:45;23.83;;;14.68;;
59294;SDS011;45067;44.654;20.200;2023-03-02T06:40:11;33.10;;;19.15;;
59294;SDS011;45067;44.654;20.200;2023-03-02T06:42:39;24.95;;;15.20;;
59294;SDS011;45067;44.654;20.200;2023-03-02T06:45:06;20.90;;;12.55;;
59294;SDS011;45067;44.654;20.200;2023-03-02T06:47:32;21.02;;;11.02;;
59294;SDS011;45067;44.654;20.200;2023-03-02T06:49:58;15.70;;;9.32;;
59294;SDS011;45067;44.654;20.200;2023-03-02T06:52:25;12.30;;;7.47;;
59294;SDS011;45067;44.654;20.200;2023-03-02T06:54:54;12.65;;;7.45;;
59294;SDS011;45067;44.654;20.200;2023-03-02T06:57:20;14.90;;;8.45;;
59294;SDS011;45067;44.654;20.200;2023-03-02T06:59:46;17.55;;;9.45;;
59294;SDS011;45067;44.654;20.200;2023-03-02T07:02:12;28.55;;;15.45;;
59294;SDS011;45067;44.654;20.200;2023-03-02T07:04:38;26.95;;;15.18;;
59294;SDS011;45067;44.654;20.200;2023-03-02T07:07:04;21.48;;;12.40;;
59294;SDS011;45067;44.654;20.200;2023-03-02T07:09:31;18.48;;;11.65;;
59294;SDS011;45067;44.654;20.200;2023-03-02T07:11:58;16.05;;;8.82;;
59294;SDS011;45067;44.654;20.200;2023-03-02T07:14:24;19.40;;;10.73;;
59294;SDS011;45067;44.654;20.200;2023-03-02T07:16:50;22.65;;;11.82;;
59294;SDS011;45067;44.654;20.200;2023-03-02T07:19:16;20.48;;;11.20;;
59294;SDS011;45067;44.654;20.200;2023-03-02T07:21:42;18.48;;;9.88;;
59294;SDS011;45067;44.654;20.200;2023-03-02T07:24:08;24.20;;;13.23;;
59294;SDS011;45067;44.654;20.200;2023-03-02T07:26:34;18.55;;;9.93;;
59294;SDS011;45067;44.654;20.200;2023-03-02T07:29:00;21.55;;;11.85;;
59294;SDS011;45067;44.654;20.200;2023-03-02T07:31:26;17.00;;;9.73;;
59294;SDS011;45067;44.654;20.200;2023-03-02T07:33:52;12.60;;;6.53;;
59294;SDS011;45067;44.654;20.200;2023-03-02T07:36:18;19.75;;;11.77;;
59294;SDS011;45067;44.654;20.200;2023-03-02T07:38:44;21.38;;;10.98;;
59294;SDS011;45067;44.654;20.200;2023-03-02T07:41:10;16.15;;;9.43;;
59294;SDS011;45067;44.654;20.200;2023-03-02T07:43:37;17.55;;;8.98;;
59294;SDS011;45067;44.654;20.200;2023-03-02T07:46:03;12.38;;;7.07;;
59294;SDS011;45067;44.654;20.200;2023-03-02T07:48:30;12.48;;;6.82;;
59294;SDS011;45067;44.654;20.200;2023-03-02T07:51:00;14.88;;;7.82;;
59294;SDS011;45067;44.654;20.200;2023-03-02T07:53:27;12.15;;;6.57;;
59294;SDS011;45067;44.654;20.200;2023-03-02T07:55:53;14.57;;;7.05;;
59294;SDS011;45067;44.654;20.200;2023-03-02T07:58:19;12.43;;;7.63;;
59294;SDS011;45067;44.654;20.200;2023-03-02T08:00:46;12.43;;;7.47;;
59294;SDS011;45067;44.654;20.200;2023-03-02T08:03:12;13.40;;;7.78;;
59294;SDS011;45067;44.654;20.200;2023-03-02T08:05:38;11.85;;;6.88;;
59294;SDS011;45067;44.654;20.200;2023-03-02T08:08:04;13.20;;;6.85;;
59294;SDS011;45067;44.654;20.200;2023-03-02T08:10:32;12.65;;;8.10;;
59294;SDS011;45067;44.654;20.200;2023-03-02T08:12:58;14.20;;;8.57;;
59294;SDS011;45067;44.654;20.200;2023-03-02T08:15:24;17.95;;;9.77;;
59294;SDS011;45067;44.654;20.200;2023-03-02T08:17:50;14.57;;;9.48;;
59294;SDS011;45067;44.654;20.200;2023-03-02T08:20:17;15.07;;;8.68;;
59294;SDS011;45067;44.654;20.200;2023-03-02T08:22:43;15.43;;;9.98;;
59294;SDS011;45067;44.654;20.200;2023-03-02T08:25:09;18.30;;;10.70;;
59294;SDS011;45067;44.654;20.200;2023-03-02T08:27:35;16.13;;;10.13;;
59294;SDS011;45067;44.654;20.200;2023-03-02T08:30:02;16.33;;;10.23;;
59294;SDS011;45067;44.654;20.200;2023-03-02T08:32:28;17.55;;;9.82;;
59294;SDS011;45067;44.654;20.200;2023-03-02T08:34:54;13.05;;;8.68;;
59294;SDS011;45067;44.654;20.200;2023-03-02T08:37:20;13.13;;;8.45;;
59294;SDS011;45067;44.654;20.200;2023-03-02T08:39:47;11.50;;;7.75;;
59294;SDS011;45067;44.654;20.200;2023-03-02T08:42:13;13.57;;;8.30;;
59294;SDS011;45067;44.654;20.200;2023-03-02T08:44:39;15.55;;;8.35;;
59294;SDS011;45067;44.654;20.200;2023-03-02T08:47:05;13.57;;;8.55;;
59294;SDS011;45067;44.654;20.200;2023-03-02T08:49:31;14.80;;;9.25;;
59294;SDS011;45067;44.654;20.200;2023-03-02T08:51:57;14.88;;;9.32;;
59294;SDS011;45067;44.654;20.200;2023-03-02T08:54:24;16.50;;;9.60;;
59294;SDS011;45067;44.654;20.200;2023-03-02T08:56:51;13.88;;;9.05;;
59294;SDS011;45067;44.654;20.200;2023-03-02T08:59:17;13.93;;;9.13;;
59294;SDS011;45067;44.654;20.200;2023-03-02T09:01:44;11.75;;;8.23;;
59294;SDS011;45067;44.654;20.200;2023-03-02T09:04:10;13.13;;;8.30;;
59294;SDS011;45067;44.654;20.200;2023-03-02T09:06:40;13.35;;;9.52;;
59294;SDS011;45067;44.654;20.200;2023-03-02T09:09:07;15.88;;;10.07;;
59294;SDS011;45067;44.654;20.200;2023-03-02T09:11:33;15.63;;;10.02;;
59294;SDS011;45067;44.654;20.200;2023-03-02T09:13:59;14.82;;;9.27;;
59294;SDS011;45067;44.654;20.200;2023-03-02T09:16:25;13.02;;;8.07;;
59294;SDS011;45067;44.654;20.200;2023-03-02T09:18:51;14.40;;;8.70;;
59294;SDS011;45067;44.654;20.200;2023-03-02T09:21:17;12.77;;;7.25;;
59294;SDS011;45067;44.654;20.200;2023-03-02T09:23:44;10.57;;;6.60;;
59294;SDS011;45067;44.654;20.200;2023-03-02T09:26:10;12.98;;;8.13;;
59294;SDS011;45067;44.654;20.200;2023-03-02T09:28:36;12.30;;;7.93;;
59294;SDS011;45067;44.654;20.200;2023-03-02T09:31:03;10.00;;;6.40;;
59294;SDS011;45067;44.654;20.200;2023-03-02T09:33:29;9.75;;;6.05;;
59294;SDS011;45067;44.654;20.200;2023-03-02T09:35:56;10.55;;;6.20;;
59294;SDS011;45067;44.654;20.200;2023-03-02T09:38:22;14.13;;;8.30;;
59294;SDS011;45067;44.654;20.200;2023-03-02T09:48:34;16.00;;;8.20;;
59294;SDS011;45067;44.654;20.200;2023-03-02T09:56:16;12.27;;;7.63;;
59294;SDS011;45067;44.654;20.200;2023-03-02T09:58:46;13.88;;;9.02;;
59294;SDS011;45067;44.654;20.200;2023-03-02T10:01:15;11.90;;;6.47;;
59294;SDS011;45067;44.654;20.200;2023-03-02T10:03:50;11.85;;;7.80;;
59294;SDS011;45067;44.654;20.200;2023-03-02T10:06:17;12.73;;;8.48;;
59294;SDS011;45067;44.654;20.200;2023-03-02T10:08:43;13.55;;;9.05;;
59294;SDS011;45067;44.654;20.200;2023-03-02T10:11:13;13.10;;;8.85;;
59294;SDS011;45067;44.654;20.200;2023-03-02T10:13:54;14.93;;;9.98;;
59294;SDS011;45067;44.654;20.200;2023-03-02T10:18:58;11.73;;;7.35;;
59294;SDS011;45067;44.654;20.200;2023-03-02T10:21:27;11.43;;;7.28;;
59294;SDS011;45067;44.654;20.200;2023-03-02T10:26:22;11.57;;;6.93;;
59294;SDS011;45067;44.654;20.200;2023-03-02T10:31:41;13.05;;;7.60;;
59294;SDS011;45067;44.654;20.200;2023-03-02T10:34:10;13.68;;;8.57;;
59294;SDS011;45067;44.654;20.200;2023-03-02T10:36:37;13.80;;;8.00;;
59294;SDS011;45067;44.654;20.200;2023-03-02T10:39:06;12.05;;;8.35;;
59294;SDS011;45067;44.654;20.200;2023-03-02T10:41:34;11.68;;;7.60;;
59294;SDS011;45067;44.654;20.200;2023-03-02T10:44:05;11.55;;;8.43;;
59294;SDS011;45067;44.654;20.200;2023-03-02T10:46:41;18.50;;;12.75;;
59294;SDS011;45067;44.654;20.200;2023-03-02T10:51:56;18.27;;;12.55;;
59294;SDS011;45067;44.654;20.200;2023-03-02T10:54:22;20.73;;;14.93;;
59294;SDS011;45067;44.654;20.200;2023-03-02T10:56:50;14.75;;;11.85;;
59294;SDS011;45067;44.654;20.200;2023-03-02T11:05:19;18.95;;;13.50;;
59294;SDS011;45067;44.654;20.200;2023-03-02T11:08:01;21.40;;;14.48;;
59294;SDS011;45067;44.654;20.200;2023-03-02T11:10:32;15.05;;;10.57;;
59294;SDS011;45067;44.654;20.200;2023-03-02T11:13:01;13.27;;;8.05;;
59294;SDS011;45067;44.654;20.200;2023-03-02T11:15:39;14.60;;;9.50;;
59294;SDS011;45067;44.654;20.200;2023-03-02T11:20:41;14.05;;;8.00;;
59294;SDS011;45067;44.654;20.200;2023-03-02T11:23:19;10.32;;;6.30;;
59294;SDS011;45067;44.654;20.200;2023-03-02T11:25:49;13.52;;;6.65;;
59294;SDS011;45067;44.654;20.200;2023-03-02T11:28:21;10.15;;;5.35;;
59294;SDS011;45067;44.654;20.200;2023-03-02T11:30:52;8.95;;;6.57;;
59294;SDS011;45067;44.654;20.200;2023-03-02T11:33:21;9.27;;;6.25;;
59294;SDS011;45067;44.654;20.200;2023-03-02T11:36:01;9.00;;;5.40;;
59294;SDS011;45067;44.654;20.200;2023-03-02T11:38:31;8.35;;;5.65;;
59294;SDS011;45067;44.654;20.200;2023-03-02T11:43:42;7.65;;;4.40;;
59294;SDS011;45067;44.654;20.200;2023-03-02T11:46:09;8.80;;;4.70;;
59294;SDS011;45067;44.654;20.200;2023-03-02T11:48:41;9.77;;;6.05;;
59294;SDS011;45067;44.654;20.200;2023-03-02T11:51:12;10.35;;;6.38;;
59294;SDS011;45067;44.654;20.200;2023-03-02T11:53:40;9.02;;;5.85;;
59294;SDS011;45067;44.654;20.200;2023-03-02T11:56:07;11.70;;;5.13;;
59294;SDS011;45067;44.654;20.200;2023-03-02T11:58:33;11.05;;;6.57;;
59294;SDS011;45067;44.654;20.200;2023-03-02T12:00:59;9.70;;;6.03;;
59294;SDS011;45067;44.654;20.200;2023-03-02T12:06:02;9.90;;;4.90;;
59294;SDS011;45067;44.654;20.200;2023-03-02T12:08:30;7.80;;;3.97;;
59294;SDS011;45067;44.654;20.200;2023-03-02T12:11:01;11.50;;;4.75;;
59294;SDS011;45067;44.654;20.200;2023-03-02T12:13:29;8.35;;;5.00;;
59294;SDS011;45067;44.654;20.200;2023-03-02T12:15:55;9.60;;;5.57;;
59294;SDS011;45067;44.654;20.200;2023-03-02T12:23:24;10.45;;;4.63;;
59294;SDS011;45067;44.654;20.200;2023-03-02T12:26:00;5.82;;;4.30;;
59294;SDS011;45067;44.654;20.200;2023-03-02T12:28:28;6.50;;;3.97;;
59294;SDS011;45067;44.654;20.200;2023-03-02T12:30:55;9.50;;;5.00;;
59294;SDS011;45067;44.654;20.200;2023-03-02T12:33:22;8.40;;;5.03;;
59294;SDS011;45067;44.654;20.200;2023-03-02T12:35:48;8.07;;;5.78;;
59294;SDS011;45067;44.654;20.200;2023-03-02T12:48:59;6.97;;;4.20;;
59294;SDS011;45067;44.654;20.200;2023-03-02T12:51:28;8.48;;;4.82;;
59294;SDS011;45067;44.654;20.200;2023-03-02T12:54:11;6.10;;;3.92;;
59294;SDS011;45067;44.654;20.200;2023-03-02T12:56:38;5.78;;;4.30;;
59294;SDS011;45067;44.654;20.200;2023-03-02T12:59:04;6.80;;;4.30;;
59294;SDS011;45067;44.654;20.200;2023-03-02T13:01:30;6.72;;;4.57;;
59294;SDS011;45067;44.654;20.200;2023-03-02T13:03:57;9.98;;;5.80;;
59294;SDS011;45067;44.654;20.200;2023-03-02T13:06:25;8.73;;;5.57;;
59294;SDS011;45067;44.654;20.200;2023-03-02T13:08:53;7.97;;;5.57;;
59294;SDS011;45067;44.654;20.200;2023-03-02T13:11:27;8.85;;;5.25;;
59294;SDS011;45067;44.654;20.200;2023-03-02T13:13:55;9.80;;;4.53;;
59294;SDS011;45067;44.654;20.200;2023-03-02T13:16:24;6.88;;;4.13;;
59294;SDS011;45067;44.654;20.200;2023-03-02T13:18:52;7.43;;;4.88;;
59294;SDS011;45067;44.654;20.200;2023-03-02T13:21:21;8.57;;;5.20;;
59294;SDS011;45067;44.654;20.200;2023-03-02T13:23:49;9.75;;;4.25;;
59294;SDS011;45067;44.654;20.200;2023-03-02T13:26:20;6.57;;;4.82;;
59294;SDS011;45067;44.654;20.200;2023-03-02T13:28:48;11.90;;;6.35;;
59294;SDS011;45067;44.654;20.200;2023-03-02T13:31:24;6.90;;;4.65;;
59294;SDS011;45067;44.654;20.200;2023-03-02T13:33:51;7.75;;;4.80;;
59294;SDS011;45067;44.654;20.200;2023-03-02T13:36:18;7.65;;;5.15;;
59294;SDS011;45067;44.654;20.200;2023-03-02T13:38:48;10.00;;;5.43;;
59294;SDS011;45067;44.654;20.200;2023-03-02T13:41:26;10.30;;;5.72;;
59294;SDS011;45067;44.654;20.200;2023-03-02T13:43:52;10.10;;;6.28;;
59294;SDS011;45067;44.654;20.200;2023-03-02T13:49:03;9.65;;;6.38;;
59294;SDS011;45067;44.654;20.200;2023-03-02T13:51:31;11.50;;;7.05;;
59294;SDS011;45067;44.654;20.200;2023-03-02T13:54:02;14.45;;;7.47;;
59294;SDS011;45067;44.654;20.200;2023-03-02T13:56:29;11.68;;;6.97;;
59294;SDS011;45067;44.654;20.200;2023-03-02T13:58:56;9.88;;;5.10;;
59294;SDS011;45067;44.654;20.200;2023-03-02T14:01:22;10.50;;;6.35;;
59294;SDS011;45067;44.654;20.200;2023-03-02T14:03:48;9.68;;;6.25;;
59294;SDS011;45067;44.654;20.200;2023-03-02T14:06:14;9.45;;;6.18;;
59294;SDS011;45067;44.654;20.200;2023-03-02T14:08:42;10.82;;;7.30;;
59294;SDS011;45067;44.654;20.200;2023-03-02T14:11:09;11.10;;;6.85;;
59294;SDS011;45067;44.654;20.200;2023-03-02T14:13:37;10.27;;;6.00;;
59294;SDS011;45067;44.654;20.200;2023-03-02T14:16:05;8.85;;;5.75;;
59294;SDS011;45067;44.654;20.200;2023-03-02T14:21:04;9.65;;;6.10;;
59294;SDS011;45067;44.654;20.200;2023-03-02T14:23:30;9.85;;;6.07;;
59294;SDS011;45067;44.654;20.200;2023-03-02T14:25:56;9.20;;;5.68;;
59294;SDS011;45067;44.654;20.200;2023-03-02T14:28:40;8.98;;;5.78;;
59294;SDS011;45067;44.654;20.200;2023-03-02T14:31:08;9.10;;;5.88;;
59294;SDS011;45067;44.654;20.200;2023-03-02T14:33:34;10.45;;;5.60;;
59294;SDS011;45067;44.654;20.200;2023-03-02T14:36:00;9.60;;;5.80;;
59294;SDS011;45067;44.654;20.200;2023-03-02T14:38:27;10.93;;;6.15;;
59294;SDS011;45067;44.654;20.200;2023-03-02T14:40:54;9.65;;;5.95;;
59294;SDS011;45067;44.654;20.200;2023-03-02T14:43:20;9.38;;;5.45;;
59294;SDS011;45067;44.654;20.200;2023-03-02T14:45:47;10.40;;;5.95;;
59294;SDS011;45067;44.654;20.200;2023-03-02T14:48:14;8.23;;;5.05;;
59294;SDS011;45067;44.654;20.200;2023-03-02T14:50:41;7.28;;;4.85;;
59294;SDS011;45067;44.654;20.200;2023-03-02T14:53:18;8.50;;;4.82;;
59294;SDS011;45067;44.654;20.200;2023-03-02T14:55:45;8.60;;;5.45;;
59294;SDS011;45067;44.654;20.200;2023-03-02T14:58:12;10.18;;;5.50;;
59294;SDS011;45067;44.654;20.200;2023-03-02T15:00:39;8.48;;;4.97;;
59294;SDS011;45067;44.654;20.200;2023-03-02T15:03:05;9.23;;;5.65;;
59294;SDS011;45067;44.654;20.200;2023-03-02T15:05:31;9.57;;;6.10;;
59294;SDS011;45067;44.654;20.200;2023-03-02T15:07:57;8.88;;;6.05;;
59294;SDS011;45067;44.654;20.200;2023-03-02T15:10:24;10.32;;;5.65;;
59294;SDS011;45067;44.654;20.200;2023-03-02T15:12:50;10.88;;;6.30;;
59294;SDS011;45067;44.654;20.200;2023-03-02T15:15:16;11.32;;;6.97;;
59294;SDS011;45067;44.654;20.200;2023-03-02T15:17:42;10.60;;;7.30;;
59294;SDS011;45067;44.654;20.200;2023-03-02T15:20:12;11.75;;;7.32;;
59294;SDS011;45067;44.654;20.200;2023-03-02T15:22:39;14.32;;;7.93;;
59294;SDS011;45067;44.654;20.200;2023-03-02T15:25:05;13.93;;;8.57;;
59294;SDS011;45067;44.654;20.200;2023-03-02T15:27:31;10.30;;;6.30;;
59294;SDS011;45067;44.654;20.200;2023-03-02T15:29:57;9.80;;;6.90;;
59294;SDS011;45067;44.654;20.200;2023-03-02T15:32:23;11.43;;;6.43;;
59294;SDS011;45067;44.654;20.200;2023-03-02T15:34:49;7.05;;;4.60;;